Time;durP1;ratioP1;P1;durP2;ratioP2;P2;SDS_P1;SDS_P2;PMS_P1;PMS_P2;Temp;Humidity;BMP_temperature;BMP_pressure;BME280_temperature;BME280_humidity;BME280_pressure;Samples;Min_cycle;Max_cycle;Signal;HPM_P1;HPM_P2
2023/03/03 00:03:59;;;;;;;23.67;20.10;;;7.30;31.40;;;;;;10325123;28;20830;-75
2023/03/03 00:09:04;;;;;;;27.97;22.90;;;7.30;31.60;;;;;;10343952;28;20265;-75
2023/03/03 00:14:18;;;;;;;26.23;21.70;;;7.20;31.80;;;;;;10325151;28;20238;-74
2023/03/03 00:19:22;;;;;;;28.70;22.73;;;7.10;32.40;;;;;;10339547;28;22682;-74
2023/03/03 00:24:36;;;;;;;26.70;22.07;;;7.00;31.60;;;;;;10345478;28;20226;-74
2023/03/03 00:29:44;;;;;;;27.43;22.43;;;6.80;32.20;;;;;;10342670;28;20236;-74
2023/03/03 00:34:48;;;;;;;25.37;21.67;;;6.60;32.00;;;;;;10340711;28;20238;-74
2023/03/03 00:39:52;;;;;;;22.03;19.23;;;6.40;31.90;;;;;;10339998;28;20570;-73
2023/03/03 00:44:57;;;;;;;24.63;20.37;;;6.30;32.20;;;;;;10338602;28;20715;-73
2023/03/03 00:50:24;;;;;;;22.57;17.90;;;6.20;32.20;;;;;;10350978;28;20274;-74
2023/03/03 00:55:30;;;;;;;28.30;19.30;;;6.10;33.20;;;;;;10362138;28;20272;-74
2023/03/03 01:00:33;;;;;;;22.20;17.53;;;6.10;32.70;;;;;;10363242;28;20236;-73
2023/03/03 01:05:38;;;;;;;25.27;19.07;;;6.10;32.50;;;;;;10365099;28;20236;-73
2023/03/03 01:10:46;;;;;;;24.27;19.53;;;6.10;32.50;;;;;;10322433;28;20226;-73
2023/03/03 01:15:50;;;;;;;26.13;20.87;;;6.20;32.90;;;;;;10321932;28;20223;-73
2023/03/03 01:20:53;;;;;;;24.17;20.10;;;6.20;32.60;;;;;;10324913;28;20265;-73
2023/03/03 01:25:58;;;;;;;23.90;20.93;;;6.10;32.30;;;;;;10321142;28;20235;-73
2023/03/03 01:31:02;;;;;;;26.87;21.33;;;6.10;32.70;;;;;;10297385;28;20228;-73
2023/03/03 01:36:06;;;;;;;28.17;21.93;;;6.00;32.60;;;;;;10295609;28;20313;-73
2023/03/03 01:41:11;;;;;;;28.93;22.20;;;6.00;32.50;;;;;;10297888;28;20242;-73
2023/03/03 01:46:46;;;;;;;23.43;19.53;;;6.00;32.70;;;;;;10290373;28;20246;-73
2023/03/03 01:51:54;;;;;;;25.67;21.13;;;5.80;33.50;;;;;;10286603;28;20674;-73
2023/03/03 01:57:02;;;;;;;27.70;21.97;;;5.70;33.10;;;;;;10314691;28;20231;-73
2023/03/03 02:02:06;;;;;;;27.10;22.40;;;5.70;33.10;;;;;;10312487;28;20228;-73
2023/03/03 02:07:10;;;;;;;23.23;19.43;;;5.60;32.80;;;;;;10312915;28;20687;-73
2023/03/03 02:12:19;;;;;;;24.97;20.47;;;5.60;33.10;;;;;;10301845;28;20765;-73
2023/03/03 02:17:23;;;;;;;23.70;20.17;;;5.50;33.30;;;;;;10297731;28;20231;-73
2023/03/03 02:22:34;;;;;;;24.67;20.00;;;5.60;32.90;;;;;;10309275;28;20227;-73
2023/03/03 02:27:39;;;;;;;27.90;22.13;;;5.60;33.30;;;;;;10281616;28;20231;-74
2023/03/03 02:32:42;;;;;;;24.23;19.40;;;5.60;33.10;;;;;;10296918;28;20239;-74
2023/03/03 02:37:45;;;;;;;28.37;22.13;;;5.50;32.90;;;;;;10317256;28;20253;-74
2023/03/03 02:42:53;;;;;;;28.83;23.17;;;5.40;32.90;;;;;;10320163;28;20278;-73
2023/03/03 02:47:56;;;;;;;30.17;22.00;;;5.40;33.60;;;;;;10318928;28;20609;-74
2023/03/03 02:52:59;;;;;;;28.77;21.97;;;5.20;33.10;;;;;;10319055;28;20632;-76
2023/03/03 02:58:04;;;;;;;27.20;20.80;;;5.20;33.30;;;;;;10318145;28;20226;-76
2023/03/03 03:03:07;;;;;;;26.43;21.00;;;5.10;33.60;;;;;;10319835;28;20241;-76
2023/03/03 03:08:10;;;;;;;27.93;20.60;;;5.10;33.60;;;;;;10317513;28;20715;-74
2023/03/03 03:13:15;;;;;;;25.57;19.63;;;5.20;33.70;;;;;;10319362;28;20234;-74
2023/03/03 03:18:18;;;;;;;28.53;21.43;;;5.20;33.90;;;;;;10317999;28;20231;-74
2023/03/03 03:23:21;;;;;;;26.90;21.87;;;5.20;33.70;;;;;;10318568;28;20632;-74
2023/03/03 03:28:26;;;;;;;27.23;20.90;;;5.30;33.80;;;;;;10318648;28;20234;-74
2023/03/03 03:33:29;;;;;;;27.87;20.50;;;5.30;34.00;;;;;;10318050;28;20273;-74
2023/03/03 03:38:32;;;;;;;28.63;21.87;;;5.30;33.80;;;;;;10318793;28;20231;-73
2023/03/03 03:43:37;;;;;;;27.37;21.77;;;5.30;33.90;;;;;;10317852;28;20234;-74
2023/03/03 03:48:40;;;;;;;29.23;21.97;;;5.30;34.20;;;;;;10316926;28;20243;-73
2023/03/03 03:53:44;;;;;;;29.50;23.37;;;5.30;33.90;;;;;;10318708;28;20234;-73
2023/03/03 03:58:48;;;;;;;27.60;22.13;;;5.20;34.00;;;;;;10320402;28;20253;-74
2023/03/03 04:03:52;;;;;;;27.07;21.80;;;5.20;34.30;;;;;;10316243;28;20258;-73
2023/03/03 04:08:55;;;;;;;28.70;21.83;;;5.10;34.20;;;;;;10316785;28;20238;-73
2023/03/03 04:14:00;;;;;;;31.23;23.27;;;5.10;34.40;;;;;;10314082;28;20231;-73
2023/03/03 04:19:04;;;;;;;29.20;22.63;;;5.10;34.80;;;;;;10316870;28;20259;-74
2023/03/03 04:24:08;;;;;;;32.27;23.17;;;5.10;34.60;;;;;;10314588;28;20639;-72
2023/03/03 04:29:13;;;;;;;33.40;21.83;;;5.20;34.80;;;;;;10319395;28;20234;-73
2023/03/03 04:39:50;;;;;;;35.10;24.30;;;5.20;34.80;;;;;;10312505;28;20239;-73
2023/03/03 04:45:24;;;;;;;32.10;24.10;;;5.10;34.80;;;;;;10283889;28;20227;-73
2023/03/03 04:50:28;;;;;;;30.03;22.63;;;5.10;36.30;;;;;;10289472;28;20683;-73
2023/03/03 04:55:32;;;;;;;31.77;23.77;;;5.10;35.00;;;;;;10335105;28;20332;-73
2023/03/03 05:00:37;;;;;;;31.73;23.47;;;5.20;35.20;;;;;;10327208;28;20313;-73
2023/03/03 05:05:41;;;;;;;29.73;23.70;;;5.20;35.40;;;;;;10323396;28;20235;-73
2023/03/03 05:10:44;;;;;;;30.17;22.37;;;5.20;35.30;;;;;;10328543;28;20716;-75
2023/03/03 05:15:51;;;;;;;31.47;23.00;;;5.30;35.40;;;;;;10329249;28;20237;-73
2023/03/03 05:20:56;;;;;;;29.83;22.60;;;5.30;35.90;;;;;;10311156;28;20230;-73
2023/03/03 05:25:59;;;;;;;32.70;24.13;;;5.30;35.50;;;;;;10313495;28;20318;-73
2023/03/03 05:31:07;;;;;;;34.40;24.57;;;5.40;35.40;;;;;;10312560;28;20238;-75
2023/03/03 05:36:10;;;;;;;32.80;23.77;;;5.40;36.30;;;;;;10307229;28;20775;-73
2023/03/03 05:41:14;;;;;;;31.73;23.80;;;5.50;35.60;;;;;;10313736;28;20231;-73
2023/03/03 05:46:18;;;;;;;33.70;24.73;;;5.50;35.50;;;;;;10306075;28;20234;-73
2023/03/03 05:51:22;;;;;;;34.57;25.00;;;5.60;35.80;;;;;;10311969;28;20242;-73
2023/03/03 05:56:28;;;;;;;29.07;21.30;;;5.60;35.40;;;;;;10313166;28;20294;-73
2023/03/03 06:01:33;;;;;;;31.07;22.87;;;5.60;35.90;;;;;;10314139;28;20329;-74
2023/03/03 06:06:36;;;;;;;30.73;23.10;;;5.70;35.90;;;;;;10312688;28;20730;-73
2023/03/03 06:11:40;;;;;;;33.93;25.93;;;5.70;35.70;;;;;;10310439;28;20423;-73
2023/03/03 06:16:44;;;;;;;31.33;24.20;;;5.80;35.60;;;;;;10313712;28;20374;-74
2023/03/03 06:21:47;;;;;;;31.87;24.13;;;5.80;35.80;;;;;;10315870;28;20765;-74
2023/03/03 06:26:51;;;;;;;30.97;22.83;;;5.80;35.60;;;;;;10299957;28;20235;-74
2023/03/03 06:31:55;;;;;;;29.73;23.53;;;5.80;36.90;;;;;;10319593;28;20645;-73
2023/03/03 06:36:59;;;;;;;33.90;25.00;;;6.00;37.00;;;;;;10319960;28;20227;-74
2023/03/03 06:42:02;;;;;;;33.57;25.77;;;6.10;36.20;;;;;;10323638;28;20234;-75
2023/03/03 06:47:06;;;;;;;31.40;24.40;;;6.20;36.00;;;;;;10324282;28;20231;-77
2023/03/03 06:52:13;;;;;;;48.23;35.43;;;6.20;36.00;;;;;;10324175;28;20223;-76
2023/03/03 06:57:27;;;;;;;40.93;29.57;;;6.30;36.30;;;;;;10319538;28;20636;-71
2023/03/03 07:02:32;;;;;;;72.13;47.70;;;6.30;36.00;;;;;;10318888;28;20234;-71
2023/03/03 07:07:35;;;;;;;51.77;35.07;;;6.30;36.00;;;;;;10322053;28;20313;-77
2023/03/03 07:12:41;;;;;;;35.60;27.43;;;6.20;35.80;;;;;;10319213;28;20285;-72
2023/03/03 07:17:48;;;;;;;39.13;29.07;;;6.20;35.90;;;;;;10317234;28;20285;-73
2023/03/03 07:22:53;;;;;;;36.97;27.20;;;6.30;36.60;;;;;;10317075;28;20710;-70
2023/03/03 07:28:00;;;;;;;33.80;26.00;;;6.40;36.20;;;;;;10319802;28;20285;-74
2023/03/03 07:33:11;;;;;;;35.13;25.90;;;6.40;36.50;;;;;;10318328;28;20219;-73
2023/03/03 07:38:24;;;;;;;36.03;25.93;;;6.50;36.60;;;;;;10318011;28;20239;-72
2023/03/03 07:43:35;;;;;;;34.03;25.63;;;6.60;37.10;;;;;;10317492;28;21622;-72
2023/03/03 07:48:42;;;;;;;30.63;25.57;;;6.70;37.00;;;;;;10315120;28;20633;-75
2023/03/03 07:53:46;;;;;;;35.07;25.97;;;6.80;37.00;;;;;;10318821;28;20247;-75
2023/03/03 07:58:49;;;;;;;33.80;25.87;;;6.90;36.40;;;;;;10319259;28;20742;-74
2023/03/03 08:03:54;;;;;;;26.60;21.00;;;7.00;36.50;;;;;;10310895;28;20226;-74
2023/03/03 08:09:01;;;;;;;36.93;26.03;;;7.10;36.50;;;;;;10318648;28;20235;-74
2023/03/03 08:14:11;;;;;;;30.33;24.17;;;7.20;36.40;;;;;;10318157;28;20634;-74
2023/03/03 08:19:17;;;;;;;31.70;24.57;;;7.40;36.90;;;;;;10318040;28;20253;-74
2023/03/03 08:24:20;;;;;;;30.23;24.67;;;7.50;36.70;;;;;;10316987;28;20234;-74
2023/03/03 08:29:24;;;;;;;32.83;25.03;;;7.60;36.20;;;;;;10318486;28;20235;-74
2023/03/03 08:34:28;;;;;;;29.13;24.70;;;7.80;36.30;;;;;;10318313;28;20483;-74
2023/03/03 08:39:31;;;;;;;28.47;23.37;;;8.00;36.50;;;;;;10315705;28;20648;-74
2023/03/03 08:44:34;;;;;;;29.67;24.83;;;8.10;35.90;;;;;;10317687;28;20715;-74
2023/03/03 08:49:42;;;;;;;28.30;23.13;;;8.20;35.70;;;;;;10320504;28;20604;-74
2023/03/03 08:54:45;;;;;;;24.63;21.10;;;8.30;35.50;;;;;;10321733;28;20226;-72
2023/03/03 08:59:48;;;;;;;24.83;21.33;;;8.40;34.90;;;;;;10324748;28;20231;-73
2023/03/03 09:04:52;;;;;;;23.70;20.97;;;8.50;34.80;;;;;;10323498;28;20222;-73
2023/03/03 09:09:56;;;;;;;24.17;20.50;;;8.60;34.70;;;;;;10323890;28;20605;-73
2023/03/03 09:15:03;;;;;;;26.03;21.77;;;8.80;34.90;;;;;;10320695;28;20226;-73
2023/03/03 09:20:28;;;;;;;26.60;21.93;;;8.90;34.20;;;;;;10321706;28;20716;-73
2023/03/03 09:25:36;;;;;;;25.30;22.07;;;9.00;33.70;;;;;;10323703;28;20233;-70
2023/03/03 09:30:43;;;;;;;27.33;23.00;;;9.10;33.80;;;;;;10322855;28;20308;-70
2023/03/03 09:35:51;;;;;;;26.27;22.53;;;9.10;33.90;;;;;;10319594;28;20227;-69
2023/03/03 09:41:34;;;;;;;27.50;22.50;;;9.20;33.60;;;;;;10323726;28;20290;-69
2023/03/03 09:46:45;;;;;;;27.90;21.90;;;9.20;33.70;;;;;;10324450;28;20273;-70
2023/03/03 09:52:02;;;;;;;29.40;22.50;;;9.30;34.10;;;;;;10322222;28;20314;-70
2023/03/03 09:57:11;;;;;;;31.47;23.13;;;9.40;34.20;;;;;;10321721;28;20234;-70
2023/03/03 10:02:27;;;;;;;27.20;23.17;;;9.60;34.10;;;;;;10321596;28;20247;-70
2023/03/03 10:07:41;;;;;;;31.23;24.07;;;9.70;33.70;;;;;;10283339;28;20257;-70
2023/03/03 10:12:55;;;;;;;27.73;23.33;;;9.80;33.60;;;;;;10307586;28;20227;-70
2023/03/03 10:18:04;;;;;;;27.63;22.60;;;9.90;33.70;;;;;;10315144;28;20232;-70
2023/03/03 10:23:21;;;;;;;26.67;23.73;;;10.00;32.90;;;;;;10306227;28;20243;-71
2023/03/03 10:28:47;;;;;;;30.17;24.17;;;10.10;32.80;;;;;;10305478;28;20241;-70
2023/03/03 10:33:59;;;;;;;26.10;23.37;;;10.20;32.60;;;;;;10324305;28;20218;-70
2023/03/03 10:39:24;;;;;;;27.33;23.47;;;10.30;32.50;;;;;;10315935;28;20259;-73
2023/03/03 10:44:54;;;;;;;33.07;24.83;;;10.40;32.60;;;;;;10318338;28;20308;-74
2023/03/03 10:50:08;;;;;;;38.37;26.70;;;10.60;32.20;;;;;;10319771;28;20720;-74
2023/03/03 10:55:35;;;;;;;25.87;22.87;;;10.70;32.30;;;;;;10319480;28;20590;-73
2023/03/03 11:00:46;;;;;;;27.87;24.57;;;10.80;32.90;;;;;;10319676;28;20297;-74
2023/03/03 11:05:52;;;;;;;29.07;24.03;;;11.00;32.80;;;;;;10317119;28;20219;-74
2023/03/03 11:11:05;;;;;;;31.47;26.17;;;11.10;33.00;;;;;;10318108;28;20234;-73
2023/03/03 11:16:20;;;;;;;27.47;23.57;;;11.30;32.40;;;;;;10318823;28;20234;-73
2023/03/03 11:21:29;;;;;;;30.40;25.87;;;11.40;32.50;;;;;;10318553;28;20298;-74
2023/03/03 11:27:05;;;;;;;30.57;25.53;;;11.50;32.70;;;;;;10318179;28;20230;-73
2023/03/03 11:32:22;;;;;;;29.10;24.80;;;11.60;31.70;;;;;;10313879;28;20223;-74
2023/03/03 11:37:35;;;;;;;30.77;25.70;;;11.70;31.80;;;;;;10315345;28;20234;-74
2023/03/03 11:42:51;;;;;;;31.90;23.33;;;11.80;31.70;;;;;;10316823;28;20250;-73
2023/03/03 11:47:59;;;;;;;30.03;23.77;;;11.90;31.20;;;;;;10314589;28;20226;-74
2023/03/03 11:53:13;;;;;;;25.37;22.37;;;11.90;31.30;;;;;;10316379;28;20219;-73
2023/03/03 11:58:22;;;;;;;26.00;22.73;;;12.00;31.20;;;;;;10313432;28;20738;-74
2023/03/03 12:03:35;;;;;;;24.63;21.90;;;12.10;31.30;;;;;;10315532;28;20223;-74
2023/03/03 12:08:57;;;;;;;22.60;19.97;;;12.20;30.60;;;;;;10314824;28;20516;-74
2023/03/03 12:14:11;;;;;;;23.03;19.77;;;12.30;30.30;;;;;;10316303;28;20237;-74
2023/03/03 12:19:35;;;;;;;22.33;19.90;;;12.30;30.00;;;;;;10313071;28;20231;-74
2023/03/03 12:24:52;;;;;;;23.47;20.07;;;12.40;30.00;;;;;;10312882;28;20234;-74
2023/03/03 12:30:13;;;;;;;21.87;18.40;;;12.50;30.00;;;;;;10316228;28;20226;-74
2023/03/03 12:35:25;;;;;;;22.30;19.17;;;12.60;30.00;;;;;;10314969;28;20226;-74
2023/03/03 12:40:33;;;;;;;23.53;20.30;;;12.60;30.00;;;;;;10314491;28;20242;-74
2023/03/03 12:45:47;;;;;;;23.73;20.47;;;12.70;30.10;;;;;;10315179;28;20230;-74
2023/03/03 12:51:00;;;;;;;26.93;20.23;;;12.70;30.10;;;;;;10319171;28;20231;-73
2023/03/03 12:56:07;;;;;;;23.97;20.47;;;12.80;30.10;;;;;;10321691;28;20703;-74
2023/03/03 13:01:22;;;;;;;21.90;19.50;;;12.70;30.10;;;;;;10320696;28;20246;-72
2023/03/03 13:06:30;;;;;;;22.23;19.70;;;12.70;30.10;;;;;;10320441;28;20234;-69
2023/03/03 13:12:04;;;;;;;23.80;20.70;;;12.80;30.20;;;;;;10306493;28;20223;-69
2023/03/03 13:17:19;;;;;;;22.40;19.67;;;12.90;29.10;;;;;;10311264;28;20222;-69
2023/03/03 13:22:38;;;;;;;22.10;19.03;;;13.00;29.50;;;;;;10310954;28;20929;-69
2023/03/03 13:27:45;;;;;;;21.63;19.23;;;13.00;29.50;;;;;;10311201;28;20318;-69
2023/03/03 13:32:57;;;;;;;23.30;20.13;;;13.10;30.20;;;;;;10315843;28;20235;-69
2023/03/03 13:38:02;;;;;;;21.60;19.40;;;13.10;29.50;;;;;;10313797;28;20724;-69
2023/03/03 13:43:13;;;;;;;26.07;21.23;;;13.10;30.00;;;;;;10309145;28;20306;-70
2023/03/03 13:48:35;;;;;;;21.57;19.27;;;13.20;29.70;;;;;;10319694;28;20238;-69
2023/03/03 13:53:49;;;;;;;24.47;21.93;;;13.20;29.80;;;;;;10320563;28;20710;-72
2023/03/03 13:59:00;;;;;;;25.33;22.50;;;13.30;30.00;;;;;;10317587;28;20230;-71
2023/03/03 14:04:13;;;;;;;25.50;22.40;;;13.40;30.30;;;;;;10318261;28;20306;-71
2023/03/03 14:09:38;;;;;;;24.50;21.77;;;13.40;29.80;;;;;;10319091;28;20238;-71
2023/03/03 14:14:52;;;;;;;26.33;22.97;;;13.50;29.60;;;;;;10314688;28;20237;-71
2023/03/03 14:20:05;;;;;;;25.10;22.37;;;13.50;29.30;;;;;;10319196;28;20235;-71
2023/03/03 14:25:11;;;;;;;25.43;22.70;;;13.50;29.40;;;;;;10318030;28;20605;-70
2023/03/03 14:30:30;;;;;;;28.50;23.13;;;13.40;30.00;;;;;;10319920;28;20601;-71
2023/03/03 14:35:36;;;;;;;24.03;21.47;;;13.40;29.60;;;;;;10320737;28;20235;-71
2023/03/03 14:40:44;;;;;;;25.23;22.17;;;13.40;29.70;;;;;;10316459;28;20233;-71
2023/03/03 14:45:47;;;;;;;24.70;21.70;;;13.40;29.60;;;;;;10320279;28;20238;-71
2023/03/03 14:50:54;;;;;;;21.43;18.83;;;13.40;30.10;;;;;;10318939;28;20227;-73
2023/03/03 14:56:15;;;;;;;22.00;19.43;;;13.40;29.70;;;;;;10314737;28;20615;-73
2023/03/03 15:01:37;;;;;;;22.43;20.07;;;13.50;29.30;;;;;;10315887;28;20238;-74
2023/03/03 15:06:44;;;;;;;20.73;18.63;;;13.50;29.10;;;;;;10319511;28;20723;-74
2023/03/03 15:11:51;;;;;;;21.13;18.40;;;13.60;29.40;;;;;;10316043;28;20612;-74
2023/03/03 15:16:56;;;;;;;21.67;18.93;;;13.60;29.20;;;;;;10314810;28;20239;-71
2023/03/03 15:22:09;;;;;;;22.20;19.80;;;13.70;29.60;;;;;;10317670;28;20227;-69
2023/03/03 15:27:19;;;;;;;21.70;19.40;;;13.70;28.80;;;;;;10317743;28;20235;-71
2023/03/03 15:32:28;;;;;;;22.40;18.87;;;13.70;29.10;;;;;;10316540;28;20234;-70
2023/03/03 15:37:42;;;;;;;21.67;17.70;;;13.80;28.80;;;;;;10318937;28;20234;-69
2023/03/03 15:42:49;;;;;;;23.50;20.80;;;13.70;28.80;;;;;;10316908;28;20226;-71
2023/03/03 15:48:11;;;;;;;21.43;18.67;;;13.80;28.90;;;;;;10318802;28;20599;-69
2023/03/03 15:53:50;;;;;;;23.00;19.07;;;13.70;28.40;;;;;;10318587;28;20652;-71
2023/03/03 15:59:45;;;;;;;23.50;18.43;;;13.60;28.90;;;;;;10317805;28;20234;-71
2023/03/03 16:04:56;;;;;;;19.87;17.70;;;13.60;28.90;;;;;;10312757;28;20230;-71
2023/03/03 16:10:11;;;;;;;21.10;18.87;;;13.50;28.90;;;;;;10316747;28;20235;-71
2023/03/03 16:15:46;;;;;;;23.70;19.67;;;13.50;28.80;;;;;;10314518;28;20233;-71
2023/03/03 16:21:00;;;;;;;21.77;19.47;;;13.50;28.90;;;;;;10317287;28;20756;-76
2023/03/03 16:26:24;;;;;;;20.33;18.13;;;13.50;29.00;;;;;;10322216;28;20226;-75
2023/03/03 16:31:32;;;;;;;26.47;20.80;;;13.40;28.80;;;;;;10325922;28;20231;-76
2023/03/03 16:36:48;;;;;;;21.60;19.37;;;13.30;29.00;;;;;;10323266;28;20231;-74
2023/03/03 16:42:00;;;;;;;22.97;19.87;;;13.30;29.00;;;;;;10321864;28;20238;-75
2023/03/03 16:47:19;;;;;;;21.83;19.37;;;13.30;29.00;;;;;;10321701;28;20234;-76
2023/03/03 16:52:29;;;;;;;22.87;19.20;;;13.30;28.80;;;;;;10321604;28;20234;-73
2023/03/03 16:57:47;;;;;;;23.60;19.27;;;13.30;29.20;;;;;;10318224;28;20711;-74
2023/03/03 17:03:15;;;;;;;28.90;23.40;;;13.20;29.10;;;;;;10321073;28;20261;-73
2023/03/03 17:08:48;;;;;;;23.50;20.90;;;13.10;28.80;;;;;;10322125;28;20230;-74
2023/03/03 17:14:08;;;;;;;36.03;28.83;;;13.00;28.90;;;;;;10320898;28;20234;-74
2023/03/03 17:19:24;;;;;;;30.70;26.33;;;12.80;28.80;;;;;;10324376;28;20227;-74
2023/03/03 17:24:39;;;;;;;28.83;23.03;;;12.60;29.00;;;;;;10323388;28;20801;-74
2023/03/03 17:29:54;;;;;;;24.67;20.00;;;12.50;29.10;;;;;;10321483;28;20241;-74
2023/03/03 17:35:20;;;;;;;24.93;20.87;;;12.40;29.10;;;;;;10319966;28;20226;-74
2023/03/03 17:40:46;;;;;;;23.93;21.17;;;12.20;29.10;;;;;;10322183;28;20223;-74
2023/03/03 17:45:55;;;;;;;24.57;20.17;;;12.10;29.30;;;;;;10322422;28;20234;-74
2023/03/03 17:51:24;;;;;;;24.73;20.80;;;12.00;29.70;;;;;;10322473;28;20895;-74
2023/03/03 17:56:30;;;;;;;21.23;18.87;;;11.90;29.60;;;;;;10322559;28;20308;-74
2023/03/03 18:01:49;;;;;;;25.97;20.60;;;11.80;29.50;;;;;;10322412;28;20242;-75
2023/03/03 18:07:15;;;;;;;30.33;21.70;;;11.70;29.50;;;;;;10320291;28;20227;-76
2023/03/03 18:12:29;;;;;;;22.33;18.97;;;11.60;29.40;;;;;;10306881;28;20231;-75
2023/03/03 18:18:03;;;;;;;23.37;18.83;;;11.50;29.90;;;;;;10310553;28;20235;-74
2023/03/03 18:23:29;;;;;;;25.37;22.70;;;11.30;29.20;;;;;;10317540;28;20227;-74
2023/03/03 18:28:47;;;;;;;26.90;23.23;;;11.30;29.20;;;;;;10315064;28;20566;-74
2023/03/03 18:34:08;;;;;;;29.03;25.07;;;11.20;29.10;;;;;;10312267;28;20233;-74
2023/03/03 18:39:14;;;;;;;24.67;21.33;;;11.00;29.10;;;;;;10318865;28;20643;-71
2023/03/03 18:44:35;;;;;;;34.73;28.47;;;10.90;29.30;;;;;;10318505;28;20636;-71
2023/03/03 18:49:54;;;;;;;39.37;29.77;;;10.80;30.00;;;;;;10318563;28;20242;-70
2023/03/03 18:55:22;;;;;;;38.90;31.03;;;10.60;29.60;;;;;;10317505;28;20345;-68
2023/03/03 19:00:30;;;;;;;31.57;25.73;;;10.50;29.60;;;;;;10319471;28;20233;-70
2023/03/03 19:05:46;;;;;;;33.33;26.37;;;10.30;29.70;;;;;;10320656;28;20230;-70
2023/03/03 19:10:57;;;;;;;31.47;25.77;;;10.20;29.90;;;;;;10319569;28;20353;-70
2023/03/03 19:16:01;;;;;;;28.00;23.30;;;10.10;30.00;;;;;;10317005;28;20238;-70
2023/03/03 19:21:19;;;;;;;32.50;25.60;;;10.10;29.70;;;;;;10320974;28;20253;-74
2023/03/03 19:26:52;;;;;;;30.43;25.40;;;10.00;29.70;;;;;;10319928;28;20732;-70
2023/03/03 19:32:05;;;;;;;31.50;26.13;;;9.80;30.70;;;;;;10316138;28;20234;-71
2023/03/03 19:37:39;;;;;;;27.30;23.57;;;9.60;30.80;;;;;;10318014;28;20227;-71
2023/03/03 19:42:48;;;;;;;24.87;22.17;;;9.50;30.90;;;;;;10309392;28;20297;-71
2023/03/03 19:48:00;;;;;;;29.17;25.00;;;9.40;30.80;;;;;;10310467;28;20227;-74
2023/03/03 19:53:18;;;;;;;28.80;23.93;;;9.30;30.90;;;;;;10308466;28;20214;-74
2023/03/03 19:58:30;;;;;;;25.07;21.67;;;9.20;31.20;;;;;;10308056;28;20643;-71
2023/03/03 20:04:08;;;;;;;27.47;23.97;;;9.10;31.20;;;;;;10308844;28;20350;-72
2023/03/03 20:09:26;;;;;;;30.67;25.73;;;9.00;31.40;;;;;;10312107;28;20230;-71
2023/03/03 20:14:44;;;;;;;31.30;26.07;;;8.90;31.40;;;;;;10312680;28;20234;-71
2023/03/03 20:19:55;;;;;;;28.87;23.53;;;8.80;31.30;;;;;;10309734;28;20234;-72
2023/03/03 20:25:14;;;;;;;29.77;25.67;;;8.80;31.30;;;;;;10308354;28;20228;-71
2023/03/03 20:30:27;;;;;;;26.20;23.10;;;8.70;31.50;;;;;;10310527;28;20227;-73
2023/03/03 20:35:43;;;;;;;29.83;25.67;;;8.70;31.30;;;;;;10308797;28;20699;-72
2023/03/03 20:40:55;;;;;;;27.60;24.03;;;8.60;31.30;;;;;;10308919;28;20233;-74
2023/03/03 20:46:08;;;;;;;29.60;25.53;;;8.50;31.20;;;;;;10306772;28;20238;-74
2023/03/03 20:51:21;;;;;;;28.50;22.43;;;8.50;31.40;;;;;;10307896;28;20313;-74
2023/03/03 20:56:33;;;;;;;26.50;23.50;;;8.40;31.30;;;;;;10309422;28;20231;-74
2023/03/03 21:01:43;;;;;;;25.67;22.20;;;8.20;31.40;;;;;;10313966;28;20235;-74
2023/03/03 21:06:46;;;;;;;27.93;24.23;;;8.20;31.50;;;;;;10312937;28;20474;-74
2023/03/03 21:11:50;;;;;;;28.00;24.43;;;8.10;31.20;;;;;;10312734;28;20235;-71
2023/03/03 21:16:55;;;;;;;26.70;23.07;;;8.10;31.40;;;;;;10314181;28;20242;-75
2023/03/03 21:22:00;;;;;;;31.00;23.93;;;8.00;31.40;;;;;;10318125;28;20325;-75
2023/03/03 21:27:24;;;;;;;27.67;24.50;;;7.90;31.20;;;;;;10318248;28;20235;-74
2023/03/03 21:32:39;;;;;;;32.13;25.13;;;7.80;31.80;;;;;;10318179;28;20230;-75
2023/03/03 21:37:46;;;;;;;28.50;23.60;;;7.80;31.80;;;;;;10317259;28;20230;-73
2023/03/03 21:42:52;;;;;;;26.57;21.47;;;7.70;31.30;;;;;;10315919;28;20629;-75
2023/03/03 21:47:56;;;;;;;27.67;23.67;;;7.60;31.30;;;;;;10319432;28;20234;-77
2023/03/03 21:53:03;;;;;;;26.13;23.37;;;7.60;31.40;;;;;;10315882;28;20227;-74
2023/03/03 21:58:07;;;;;;;30.00;23.57;;;7.50;31.40;;;;;;10317567;28;20297;-77
2023/03/03 22:03:11;;;;;;;27.67;24.73;;;7.40;31.60;;;;;;10315928;28;20234;-74
2023/03/03 22:08:17;;;;;;;29.03;23.27;;;7.40;31.60;;;;;;10321277;28;20226;-72
2023/03/03 22:13:22;;;;;;;28.17;23.13;;;7.20;31.60;;;;;;10320760;28;20269;-73
2023/03/03 22:18:25;;;;;;;24.73;22.10;;;7.20;32.00;;;;;;10319633;28;20230;-73
2023/03/03 22:23:29;;;;;;;28.27;24.20;;;7.10;31.80;;;;;;10316188;28;20231;-72
2023/03/03 22:28:33;;;;;;;24.30;21.73;;;7.10;31.90;;;;;;10322657;28;20733;-73
2023/03/03 22:33:36;;;;;;;27.10;23.37;;;7.00;32.20;;;;;;10316339;28;20235;-76
2023/03/03 22:38:41;;;;;;;26.57;22.90;;;6.90;32.00;;;;;;10322034;28;20242;-73
2023/03/03 22:43:46;;;;;;;27.03;23.93;;;6.90;32.10;;;;;;10317563;28;20222;-72
2023/03/03 22:48:49;;;;;;;30.57;24.20;;;6.80;32.20;;;;;;10320244;28;20266;-72
2023/03/03 22:53:53;;;;;;;29.70;23.90;;;6.80;32.20;;;;;;10317316;28;20226;-73
2023/03/03 22:58:57;;;;;;;26.87;23.13;;;6.70;32.10;;;;;;10321025;28;20235;-77
2023/03/03 23:04:00;;;;;;;26.13;22.50;;;6.70;32.10;;;;;;10318022;28;20239;-73
2023/03/03 23:09:03;;;;;;;28.20;24.17;;;6.60;32.00;;;;;;10318500;28;20261;-73
2023/03/03 23:14:08;;;;;;;28.53;23.83;;;6.60;32.00;;;;;;10318547;28;20223;-73
2023/03/03 23:19:11;;;;;;;28.67;23.57;;;6.30;31.80;;;;;;10320447;28;20240;-73
2023/03/03 23:24:14;;;;;;;24.97;21.33;;;6.40;31.90;;;;;;10317049;28;20730;-73
2023/03/03 23:29:19;;;;;;;31.53;23.77;;;6.40;32.10;;;;;;10318776;28;20223;-76
2023/03/03 23:34:22;;;;;;;28.97;24.27;;;6.30;32.20;;;;;;10319190;28;20234;-77
2023/03/03 23:39:25;;;;;;;25.63;21.87;;;6.30;32.10;;;;;;10319206;28;20234;-76
2023/03/03 23:44:30;;;;;;;26.13;22.17;;;6.30;32.20;;;;;;10317022;28;20239;-77
2023/03/03 23:49:34;;;;;;;23.17;20.67;;;6.20;32.40;;;;;;10318239;28;20543;-73
2023/03/03 23:54:37;;;;;;;27.17;23.00;;;6.20;32.30;;;;;;10313152;28;20227;-73
2023/03/03 23:59:42;;;;;;;25.57;20.83;;;6.10;32.20;;;;;;10318796;28;21004;-73
